sensor_id;sensor_type;location;lat;lon;timestamp;temperature;humidity
14682;DHT22;7429;52.498;13.480;2023-04-03T00:01:24;1.70;99.90
14682;DHT22;7429;52.498;13.480;2023-04-03T00:04:30;1.60;99.90
14682;DHT22;7429;52.498;13.480;2023-04-03T00:07:33;1.60;99.90
14682;DHT22;7429;52.498;13.480;2023-04-03T00:10:37;1.60;99.90
14682;DHT22;7429;52.498;13.480;2023-04-03T00:13:42;1.60;99.90
14682;DHT22;7429;52.498;13.480;2023-04-03T00:16:45;1.60;99.90
14682;DHT22;7429;52.498;13.480;2023-04-03T00:19:48;1.60;99.90
14682;DHT22;7429;52.498;13.480;2023-04-03T00:22:51;1.50;99.90
14682;DHT22;7429;52.498;13.480;2023-04-03T00:25:55;1.50;99.90
14682;DHT22;7429;52.498;13.480;2023-04-03T00:29:00;1.50;99.90
14682;DHT22;7429;52.498;13.480;2023-04-03T00:32:03;1.50;99.90
14682;DHT22;7429;52.498;13.480;2023-04-03T00:35:07;1.40;99.90
14682;DHT22;7429;52.498;13.480;2023-04-03T00:38:10;1.50;99.90
14682;DHT22;7429;52.498;13.480;2023-04-03T00:41:14;1.40;99.90
14682;DHT22;7429;52.498;13.480;2023-04-03T00:44:21;1.40;99.90
14682;DHT22;7429;52.498;13.480;2023-04-03T00:47:25;1.40;99.90
14682;DHT22;7429;52.498;13.480;2023-04-03T00:50:30;1.40;99.90
14682;DHT22;7429;52.498;13.480;2023-04-03T00:53:40;1.40;99.90
14682;DHT22;7429;52.498;13.480;2023-04-03T00:56:45;1.40;99.90
14682;DHT22;7429;52.498;13.480;2023-04-03T00:59:53;1.40;99.90
14682;DHT22;7429;52.498;13.480;2023-04-03T01:02:58;1.50;99.90
14682;DHT22;7429;52.498;13.480;2023-04-03T01:06:03;1.40;99.90
14682;DHT22;7429;52.498;13.480;2023-04-03T01:09:07;1.40;99.90
14682;DHT22;7429;52.498;13.480;2023-04-03T01:12:15;1.30;99.90
14682;DHT22;7429;52.498;13.480;2023-04-03T01:15:23;1.30;99.90
14682;DHT22;7429;52.498;13.480;2023-04-03T01:18:28;1.30;99.90
14682;DHT22;7429;52.498;13.480;2023-04-03T01:21:59;1.30;99.90
14682;DHT22;7429;52.498;13.480;2023-04-03T01:25:09;1.30;99.90
14682;DHT22;7429;52.498;13.480;2023-04-03T01:28:14;1.20;99.90
14682;DHT22;7429;52.498;13.480;2023-04-03T01:31:22;1.30;99.90
14682;DHT22;7429;52.498;13.480;2023-04-03T01:34:30;1.20;99.90
14682;DHT22;7429;52.498;13.480;2023-04-03T01:37:35;1.20;99.90
14682;DHT22;7429;52.498;13.480;2023-04-03T01:40:38;1.20;99.90
14682;DHT22;7429;52.498;13.480;2023-04-03T01:43:44;1.20;99.90
14682;DHT22;7429;52.498;13.480;2023-04-03T01:46:47;1.10;99.90
14682;DHT22;7429;52.498;13.480;2023-04-03T01:49:52;1.10;99.90
14682;DHT22;7429;52.498;13.480;2023-04-03T01:52:56;1.10;99.90
14682;DHT22;7429;52.498;13.480;2023-04-03T01:55:59;1.10;99.90
14682;DHT22;7429;52.498;13.480;2023-04-03T01:59:03;1.10;99.90
14682;DHT22;7429;52.498;13.480;2023-04-03T02:02:06;1.00;99.90
14682;DHT22;7429;52.498;13.480;2023-04-03T02:05:14;1.00;99.90
14682;DHT22;7429;52.498;13.480;2023-04-03T02:08:17;1.00;99.90
14682;DHT22;7429;52.498;13.480;2023-04-03T02:11:20;1.00;99.90
14682;DHT22;7429;52.498;13.480;2023-04-03T02:14:25;0.90;99.90
14682;DHT22;7429;52.498;13.480;2023-04-03T02:17:29;1.00;99.90
14682;DHT22;7429;52.498;13.480;2023-04-03T02:20:33;0.90;99.90
14682;DHT22;7429;52.498;13.480;2023-04-03T02:23:37;0.90;99.90
14682;DHT22;7429;52.498;13.480;2023-04-03T02:26:41;0.90;99.90
14682;DHT22;7429;52.498;13.480;2023-04-03T02:29:44;0.80;99.90
14682;DHT22;7429;52.498;13.480;2023-04-03T02:32:47;0.80;99.90
14682;DHT22;7429;52.498;13.480;2023-04-03T02:35:53;0.80;99.90
14682;DHT22;7429;52.498;13.480;2023-04-03T02:38:57;0.80;99.90
14682;DHT22;7429;52.498;13.480;2023-04-03T02:42:00;0.80;99.90
14682;DHT22;7429;52.498;13.480;2023-04-03T02:45:04;0.70;99.90
14682;DHT22;7429;52.498;13.480;2023-04-03T02:48:08;0.70;99.90
14682;DHT22;7429;52.498;13.480;2023-04-03T02:51:13;0.70;99.90
14682;DHT22;7429;52.498;13.480;2023-04-03T02:54:16;0.70;99.90
14682;DHT22;7429;52.498;13.480;2023-04-03T02:57:24;0.70;99.90
14682;DHT22;7429;52.498;13.480;2023-04-03T03:00:27;0.70;99.90
14682;DHT22;7429;52.498;13.480;2023-04-03T03:03:30;0.70;99.90
14682;DHT22;7429;52.498;13.480;2023-04-03T03:06:35;0.70;99.90
14682;DHT22;7429;52.498;13.480;2023-04-03T03:09:38;0.60;99.90
14682;DHT22;7429;52.498;13.480;2023-04-03T03:12:41;0.60;99.90
14682;DHT22;7429;52.498;13.480;2023-04-03T03:15:44;0.60;99.90
14682;DHT22;7429;52.498;13.480;2023-04-03T03:18:48;0.50;99.90
14682;DHT22;7429;52.498;13.480;2023-04-03T03:21:52;0.50;99.90
14682;DHT22;7429;52.498;13.480;2023-04-03T03:24:57;0.50;99.90
14682;DHT22;7429;52.498;13.480;2023-04-03T03:28:00;0.50;99.90
14682;DHT22;7429;52.498;13.480;2023-04-03T03:31:03;0.40;99.90
14682;DHT22;7429;52.498;13.480;2023-04-03T03:34:08;0.40;99.90
14682;DHT22;7429;52.498;13.480;2023-04-03T03:37:14;0.40;99.90
14682;DHT22;7429;52.498;13.480;2023-04-03T03:40:17;0.30;99.90
14682;DHT22;7429;52.498;13.480;2023-04-03T03:43:20;0.40;99.90
14682;DHT22;7429;52.498;13.480;2023-04-03T03:46:25;0.30;99.90
14682;DHT22;7429;52.498;13.480;2023-04-03T03:49:28;0.30;99.90
14682;DHT22;7429;52.498;13.480;2023-04-03T03:52:33;0.30;99.90
14682;DHT22;7429;52.498;13.480;2023-04-03T03:55:36;0.20;99.90
14682;DHT22;7429;52.498;13.480;2023-04-03T03:58:40;0.20;99.90
14682;DHT22;7429;52.498;13.480;2023-04-03T04:01:43;0.20;99.90
14682;DHT22;7429;52.498;13.480;2023-04-03T04:04:47;0.20;99.90
14682;DHT22;7429;52.498;13.480;2023-04-03T04:07:52;0.20;99.90
14682;DHT22;7429;52.498;13.480;2023-04-03T04:10:56;0.20;99.90
14682;DHT22;7429;52.498;13.480;2023-04-03T04:14:00;0.20;99.90
14682;DHT22;7429;52.498;13.480;2023-04-03T04:17:04;0.20;99.90
14682;DHT22;7429;52.498;13.480;2023-04-03T04:20:08;0.20;99.90
14682;DHT22;7429;52.498;13.480;2023-04-03T04:23:15;0.20;99.90
14682;DHT22;7429;52.498;13.480;2023-04-03T04:26:19;0.20;99.90
14682;DHT22;7429;52.498;13.480;2023-04-03T04:29:23;0.20;99.90
14682;DHT22;7429;52.498;13.480;2023-04-03T04:32:27;0.10;99.90
14682;DHT22;7429;52.498;13.480;2023-04-03T04:35:30;0.10;99.90
14682;DHT22;7429;52.498;13.480;2023-04-03T04:38:35;0.10;99.90
14682;DHT22;7429;52.498;13.480;2023-04-03T04:41:38;0.10;99.90
14682;DHT22;7429;52.498;13.480;2023-04-03T04:44:43;0.10;99.90
14682;DHT22;7429;52.498;13.480;2023-04-03T04:47:48;0.10;99.90
14682;DHT22;7429;52.498;13.480;2023-04-03T04:50:53;0.10;99.90
14682;DHT22;7429;52.498;13.480;2023-04-03T04:53:58;0.10;99.90
14682;DHT22;7429;52.498;13.480;2023-04-03T04:57:01;0.10;99.90
14682;DHT22;7429;52.498;13.480;2023-04-03T05:00:06;0.10;99.90
14682;DHT22;7429;52.498;13.480;2023-04-03T05:03:10;0.10;99.90
14682;DHT22;7429;52.498;13.480;2023-04-03T05:06:14;0.10;99.90
14682;DHT22;7429;52.498;13.480;2023-04-03T05:09:19;0.10;99.90
14682;DHT22;7429;52.498;13.480;2023-04-03T05:12:24;0.10;99.90
14682;DHT22;7429;52.498;13.480;2023-04-03T05:15:32;0.00;99.90
14682;DHT22;7429;52.498;13.480;2023-04-03T05:18:35;0.10;99.90
14682;DHT22;7429;52.498;13.480;2023-04-03T05:21:43;0.20;99.90
14682;DHT22;7429;52.498;13.480;2023-04-03T05:24:51;0.20;99.90
14682;DHT22;7429;52.498;13.480;2023-04-03T05:27:55;0.20;99.90
14682;DHT22;7429;52.498;13.480;2023-04-03T05:30:59;0.20;99.90
14682;DHT22;7429;52.498;13.480;2023-04-03T05:34:08;0.20;99.90
14682;DHT22;7429;52.498;13.480;2023-04-03T05:37:13;0.30;99.90
14682;DHT22;7429;52.498;13.480;2023-04-03T05:40:18;0.30;99.90
14682;DHT22;7429;52.498;13.480;2023-04-03T05:43:25;0.30;99.90
14682;DHT22;7429;52.498;13.480;2023-04-03T05:46:29;0.40;99.90
14682;DHT22;7429;52.498;13.480;2023-04-03T05:49:36;0.50;99.90
14682;DHT22;7429;52.498;13.480;2023-04-03T05:52:45;0.50;99.90
14682;DHT22;7429;52.498;13.480;2023-04-03T05:55:51;0.60;99.90
14682;DHT22;7429;52.498;13.480;2023-04-03T05:58:55;0.70;99.90
14682;DHT22;7429;52.498;13.480;2023-04-03T06:01:59;0.80;99.90
14682;DHT22;7429;52.498;13.480;2023-04-03T06:05:03;1.00;99.90
14682;DHT22;7429;52.498;13.480;2023-04-03T06:08:09;1.20;99.90
14682;DHT22;7429;52.498;13.480;2023-04-03T06:11:13;1.30;99.90
14682;DHT22;7429;52.498;13.480;2023-04-03T06:14:16;1.40;99.90
14682;DHT22;7429;52.498;13.480;2023-04-03T06:17:19;1.40;99.90
14682;DHT22;7429;52.498;13.480;2023-04-03T06:20:22;1.40;99.90
14682;DHT22;7429;52.498;13.480;2023-04-03T06:23:27;1.40;99.90
14682;DHT22;7429;52.498;13.480;2023-04-03T06:26:32;1.40;99.90
14682;DHT22;7429;52.498;13.480;2023-04-03T06:29:35;1.40;99.90
14682;DHT22;7429;52.498;13.480;2023-04-03T06:32:38;1.40;99.90
14682;DHT22;7429;52.498;13.480;2023-04-03T06:35:42;1.60;99.90
14682;DHT22;7429;52.498;13.480;2023-04-03T06:38:45;1.70;99.90
14682;DHT22;7429;52.498;13.480;2023-04-03T06:41:50;1.80;99.90
14682;DHT22;7429;52.498;13.480;2023-04-03T06:45:02;1.90;99.90
14682;DHT22;7429;52.498;13.480;2023-04-03T06:48:06;2.00;99.90
14682;DHT22;7429;52.498;13.480;2023-04-03T06:51:17;2.00;99.90
14682;DHT22;7429;52.498;13.480;2023-04-03T06:54:22;2.00;99.90
14682;DHT22;7429;52.498;13.480;2023-04-03T06:57:26;2.00;99.90
14682;DHT22;7429;52.498;13.480;2023-04-03T07:00:30;2.10;99.90
14682;DHT22;7429;52.498;13.480;2023-04-03T07:03:33;2.20;99.90
14682;DHT22;7429;52.498;13.480;2023-04-03T07:06:37;2.30;99.90
14682;DHT22;7429;52.498;13.480;2023-04-03T07:09:40;2.40;99.90
14682;DHT22;7429;52.498;13.480;2023-04-03T07:12:47;2.50;99.90
14682;DHT22;7429;52.498;13.480;2023-04-03T07:15:50;2.50;99.90
14682;DHT22;7429;52.498;13.480;2023-04-03T07:18:54;2.60;99.90
14682;DHT22;7429;52.498;13.480;2023-04-03T07:21:57;2.70;99.90
14682;DHT22;7429;52.498;13.480;2023-04-03T07:25:00;2.80;99.90
14682;DHT22;7429;52.498;13.480;2023-04-03T07:28:05;2.90;99.90
14682;DHT22;7429;52.498;13.480;2023-04-03T07:31:11;3.00;99.90
14682;DHT22;7429;52.498;13.480;2023-04-03T07:34:15;3.10;99.90
14682;DHT22;7429;52.498;13.480;2023-04-03T07:37:18;3.10;99.90
14682;DHT22;7429;52.498;13.480;2023-04-03T07:40:22;3.20;99.90
14682;DHT22;7429;52.498;13.480;2023-04-03T07:43:26;3.30;99.90
14682;DHT22;7429;52.498;13.480;2023-04-03T07:46:30;3.30;99.90
14682;DHT22;7429;52.498;13.480;2023-04-03T07:49:33;3.30;99.90
14682;DHT22;7429;52.498;13.480;2023-04-03T07:52:39;3.40;99.90
14682;DHT22;7429;52.498;13.480;2023-04-03T07:55:43;3.40;99.90
14682;DHT22;7429;52.498;13.480;2023-04-03T07:58:49;3.40;99.90
14682;DHT22;7429;52.498;13.480;2023-04-03T08:01:52;3.40;99.90
14682;DHT22;7429;52.498;13.480;2023-04-03T08:04:55;3.40;99.90
14682;DHT22;7429;52.498;13.480;2023-04-03T08:07:59;3.40;99.90
14682;DHT22;7429;52.498;13.480;2023-04-03T08:11:02;3.70;99.90
14682;DHT22;7429;52.498;13.480;2023-04-03T08:14:08;3.90;99.90
14682;DHT22;7429;52.498;13.480;2023-04-03T08:17:17;3.90;99.90
14682;DHT22;7429;52.498;13.480;2023-04-03T08:20:20;3.90;99.90
14682;DHT22;7429;52.498;13.480;2023-04-03T08:23:23;4.00;99.90
14682;DHT22;7429;52.498;13.480;2023-04-03T08:26:26;4.10;99.90
14682;DHT22;7429;52.498;13.480;2023-04-03T08:29:30;4.10;99.90
14682;DHT22;7429;52.498;13.480;2023-04-03T08:32:35;4.00;99.90
14682;DHT22;7429;52.498;13.480;2023-04-03T08:35:39;3.90;99.90
14682;DHT22;7429;52.498;13.480;2023-04-03T08:38:43;3.80;99.90
14682;DHT22;7429;52.498;13.480;2023-04-03T08:41:47;3.90;99.90
14682;DHT22;7429;52.498;13.480;2023-04-03T08:44:57;3.90;99.90
14682;DHT22;7429;52.498;13.480;2023-04-03T08:48:05;3.80;99.90
14682;DHT22;7429;52.498;13.480;2023-04-03T08:51:13;3.80;99.90
14682;DHT22;7429;52.498;13.480;2023-04-03T08:54:24;3.70;99.90
14682;DHT22;7429;52.498;13.480;2023-04-03T08:57:35;3.70;99.90
14682;DHT22;7429;52.498;13.480;2023-04-03T09:00:44;3.80;99.90
14682;DHT22;7429;52.498;13.480;2023-04-03T09:03:50;3.90;99.90
14682;DHT22;7429;52.498;13.480;2023-04-03T09:06:56;3.90;99.90
14682;DHT22;7429;52.498;13.480;2023-04-03T09:10:02;4.00;99.90
14682;DHT22;7429;52.498;13.480;2023-04-03T09:13:09;4.20;99.90
14682;DHT22;7429;52.498;13.480;2023-04-03T09:16:25;4.10;99.90
14682;DHT22;7429;52.498;13.480;2023-04-03T09:19:38;4.40;99.90
14682;DHT22;7429;52.498;13.480;2023-04-03T09:22:44;4.50;99.90
14682;DHT22;7429;52.498;13.480;2023-04-03T09:26:00;4.80;99.90
14682;DHT22;7429;52.498;13.480;2023-04-03T09:29:08;5.00;99.90
14682;DHT22;7429;52.498;13.480;2023-04-03T09:32:24;5.10;99.90
14682;DHT22;7429;52.498;13.480;2023-04-03T09:35:31;5.10;99.90
14682;DHT22;7429;52.498;13.480;2023-04-03T09:39:03;5.30;99.90
14682;DHT22;7429;52.498;13.480;2023-04-03T09:42:18;5.40;99.90
14682;DHT22;7429;52.498;13.480;2023-04-03T09:45:25;5.40;99.90
14682;DHT22;7429;52.498;13.480;2023-04-03T09:48:31;5.30;99.90
14682;DHT22;7429;52.498;13.480;2023-04-03T09:51:37;5.40;99.90
14682;DHT22;7429;52.498;13.480;2023-04-03T09:54:40;5.50;99.90
14682;DHT22;7429;52.498;13.480;2023-04-03T09:57:43;5.40;99.90
14682;DHT22;7429;52.498;13.480;2023-04-03T10:00:58;5.30;99.90
14682;DHT22;7429;52.498;13.480;2023-04-03T10:04:08;5.30;99.90
14682;DHT22;7429;52.498;13.480;2023-04-03T10:07:33;5.20;99.90
14682;DHT22;7429;52.498;13.480;2023-04-03T10:10:37;5.40;99.90
14682;DHT22;7429;52.498;13.480;2023-04-03T10:13:53;5.50;99.90
14682;DHT22;7429;52.498;13.480;2023-04-03T10:17:05;5.50;99.90
14682;DHT22;7429;52.498;13.480;2023-04-03T10:20:26;5.50;99.90
14682;DHT22;7429;52.498;13.480;2023-04-03T10:23:38;5.40;99.90
14682;DHT22;7429;52.498;13.480;2023-04-03T10:26:49;5.40;99.90
14682;DHT22;7429;52.498;13.480;2023-04-03T10:30:01;5.40;99.90
14682;DHT22;7429;52.498;13.480;2023-04-03T10:33:20;5.40;99.90
14682;DHT22;7429;52.498;13.480;2023-04-03T10:36:36;5.60;99.90
14682;DHT22;7429;52.498;13.480;2023-04-03T10:39:49;5.50;99.90
14682;DHT22;7429;52.498;13.480;2023-04-03T10:43:02;5.40;99.90
14682;DHT22;7429;52.498;13.480;2023-04-03T10:46:12;5.40;99.90
14682;DHT22;7429;52.498;13.480;2023-04-03T10:49:25;5.40;99.90
14682;DHT22;7429;52.498;13.480;2023-04-03T10:52:41;5.30;99.90
14682;DHT22;7429;52.498;13.480;2023-04-03T10:55:51;5.40;99.90
14682;DHT22;7429;52.498;13.480;2023-04-03T10:59:00;5.40;99.90
14682;DHT22;7429;52.498;13.480;2023-04-03T11:02:07;5.50;99.90
14682;DHT22;7429;52.498;13.480;2023-04-03T11:05:21;5.50;99.90
14682;DHT22;7429;52.498;13.480;2023-04-03T11:08:36;5.40;99.90
14682;DHT22;7429;52.498;13.480;2023-04-03T11:11:43;5.30;99.90
14682;DHT22;7429;52.498;13.480;2023-04-03T11:14:47;5.30;99.90
14682;DHT22;7429;52.498;13.480;2023-04-03T11:17:55;5.30;99.90
14682;DHT22;7429;52.498;13.480;2023-04-03T11:21:05;5.40;99.90
14682;DHT22;7429;52.498;13.480;2023-04-03T11:24:17;5.50;99.90
14682;DHT22;7429;52.498;13.480;2023-04-03T11:27:25;5.60;99.90
14682;DHT22;7429;52.498;13.480;2023-04-03T11:30:36;5.70;99.90
14682;DHT22;7429;52.498;13.480;2023-04-03T11:33:48;5.70;99.90
14682;DHT22;7429;52.498;13.480;2023-04-03T11:36:58;5.60;99.90
14682;DHT22;7429;52.498;13.480;2023-04-03T11:40:07;5.50;99.90
14682;DHT22;7429;52.498;13.480;2023-04-03T11:43:25;5.40;99.90
14682;DHT22;7429;52.498;13.480;2023-04-03T11:46:51;5.40;99.90
14682;DHT22;7429;52.498;13.480;2023-04-03T11:50:00;5.50;99.90
14682;DHT22;7429;52.498;13.480;2023-04-03T11:53:26;5.50;99.90
14682;DHT22;7429;52.498;13.480;2023-04-03T11:56:35;5.60;99.90
14682;DHT22;7429;52.498;13.480;2023-04-03T11:59:38;5.60;99.90
14682;DHT22;7429;52.498;13.480;2023-04-03T12:02:41;5.60;99.90
14682;DHT22;7429;52.498;13.480;2023-04-03T12:05:57;5.50;99.90
14682;DHT22;7429;52.498;13.480;2023-04-03T12:10:14;5.60;99.90
14682;DHT22;7429;52.498;13.480;2023-04-03T12:13:34;5.60;99.90
14682;DHT22;7429;52.498;13.480;2023-04-03T12:16:43;5.60;99.90
14682;DHT22;7429;52.498;13.480;2023-04-03T12:19:49;5.70;99.90
14682;DHT22;7429;52.498;13.480;2023-04-03T12:23:07;5.80;99.90
14682;DHT22;7429;52.498;13.480;2023-04-03T12:26:20;6.00;99.90
14682;DHT22;7429;52.498;13.480;2023-04-03T12:29:29;6.10;99.90
14682;DHT22;7429;52.498;13.480;2023-04-03T12:33:10;6.20;99.90
14682;DHT22;7429;52.498;13.480;2023-04-03T12:36:28;6.10;99.90
14682;DHT22;7429;52.498;13.480;2023-04-03T12:39:45;6.20;99.90
14682;DHT22;7429;52.498;13.480;2023-04-03T12:43:06;6.60;99.90
14682;DHT22;7429;52.498;13.480;2023-04-03T12:46:22;6.80;99.90
14682;DHT22;7429;52.498;13.480;2023-04-03T12:49:41;6.60;99.90
14682;DHT22;7429;52.498;13.480;2023-04-03T12:52:52;6.20;99.90
14682;DHT22;7429;52.498;13.480;2023-04-03T12:56:19;6.00;99.90
14682;DHT22;7429;52.498;13.480;2023-04-03T12:59:25;5.90;99.90
14682;DHT22;7429;52.498;13.480;2023-04-03T13:02:32;5.90;99.90
14682;DHT22;7429;52.498;13.480;2023-04-03T13:05:36;6.10;99.90
14682;DHT22;7429;52.498;13.480;2023-04-03T13:08:48;6.30;99.90
14682;DHT22;7429;52.498;13.480;2023-04-03T13:11:57;6.30;99.90
14682;DHT22;7429;52.498;13.480;2023-04-03T13:15:12;6.30;99.90
14682;DHT22;7429;52.498;13.480;2023-04-03T13:18:39;6.30;99.90
14682;DHT22;7429;52.498;13.480;2023-04-03T13:21:43;6.30;99.90
14682;DHT22;7429;52.498;13.480;2023-04-03T13:24:51;6.30;99.90
14682;DHT22;7429;52.498;13.480;2023-04-03T13:27:56;6.20;99.90
14682;DHT22;7429;52.498;13.480;2023-04-03T13:31:08;6.20;99.90
14682;DHT22;7429;52.498;13.480;2023-04-03T13:34:20;6.10;99.90
14682;DHT22;7429;52.498;13.480;2023-04-03T13:37:27;5.90;99.90
14682;DHT22;7429;52.498;13.480;2023-04-03T13:40:32;5.60;99.90
14682;DHT22;7429;52.498;13.480;2023-04-03T13:43:48;5.60;99.90
14682;DHT22;7429;52.498;13.480;2023-04-03T13:47:00;5.50;99.90
14682;DHT22;7429;52.498;13.480;2023-04-03T13:50:15;5.50;99.90
14682;DHT22;7429;52.498;13.480;2023-04-03T13:53:20;5.60;99.90
14682;DHT22;7429;52.498;13.480;2023-04-03T13:56:27;5.60;99.90
14682;DHT22;7429;52.498;13.480;2023-04-03T13:59:35;5.70;99.90
14682;DHT22;7429;52.498;13.480;2023-04-03T14:02:38;5.70;99.90
14682;DHT22;7429;52.498;13.480;2023-04-03T14:05:43;5.60;99.90
14682;DHT22;7429;52.498;13.480;2023-04-03T14:08:47;5.70;99.90
14682;DHT22;7429;52.498;13.480;2023-04-03T14:11:54;5.80;99.90
14682;DHT22;7429;52.498;13.480;2023-04-03T14:14:59;6.00;99.90
14682;DHT22;7429;52.498;13.480;2023-04-03T14:18:04;6.30;99.90
14682;DHT22;7429;52.498;13.480;2023-04-03T14:21:11;6.50;99.90
14682;DHT22;7429;52.498;13.480;2023-04-03T14:24:14;6.60;99.90
14682;DHT22;7429;52.498;13.480;2023-04-03T14:27:20;6.50;99.90
14682;DHT22;7429;52.498;13.480;2023-04-03T14:30:27;6.70;99.90
14682;DHT22;7429;52.498;13.480;2023-04-03T14:33:34;7.30;99.90
14682;DHT22;7429;52.498;13.480;2023-04-03T14:36:41;7.70;99.90
14682;DHT22;7429;52.498;13.480;2023-04-03T14:39:46;7.50;99.90
14682;DHT22;7429;52.498;13.480;2023-04-03T14:42:49;7.10;99.90
14682;DHT22;7429;52.498;13.480;2023-04-03T14:45:53;6.80;99.90
14682;DHT22;7429;52.498;13.480;2023-04-03T14:48:57;6.60;99.90
14682;DHT22;7429;52.498;13.480;2023-04-03T14:52:01;6.40;99.90
14682;DHT22;7429;52.498;13.480;2023-04-03T14:55:05;6.50;99.90
14682;DHT22;7429;52.498;13.480;2023-04-03T14:58:12;6.30;99.90
14682;DHT22;7429;52.498;13.480;2023-04-03T15:01:17;6.10;99.90
14682;DHT22;7429;52.498;13.480;2023-04-03T15:04:21;6.00;99.90
14682;DHT22;7429;52.498;13.480;2023-04-03T15:07:27;5.90;99.90
14682;DHT22;7429;52.498;13.480;2023-04-03T15:10:31;5.80;99.90
14682;DHT22;7429;52.498;13.480;2023-04-03T15:13:36;5.80;99.90
14682;DHT22;7429;52.498;13.480;2023-04-03T15:16:39;5.70;99.90
14682;DHT22;7429;52.498;13.480;2023-04-03T15:19:43;5.70;99.90
14682;DHT22;7429;52.498;13.480;2023-04-03T15:22:47;5.70;99.90
14682;DHT22;7429;52.498;13.480;2023-04-03T15:25:52;5.60;99.90
14682;DHT22;7429;52.498;13.480;2023-04-03T15:28:56;5.60;99.90
14682;DHT22;7429;52.498;13.480;2023-04-03T15:31:59;5.40;99.90
14682;DHT22;7429;52.498;13.480;2023-04-03T15:35:04;5.30;99.90
14682;DHT22;7429;52.498;13.480;2023-04-03T15:38:09;5.30;99.90
14682;DHT22;7429;52.498;13.480;2023-04-03T15:41:13;5.20;99.90
14682;DHT22;7429;52.498;13.480;2023-04-03T15:44:16;5.20;99.90
14682;DHT22;7429;52.498;13.480;2023-04-03T15:47:19;5.20;99.90
14682;DHT22;7429;52.498;13.480;2023-04-03T15:50:57;5.20;99.90
14682;DHT22;7429;52.498;13.480;2023-04-03T16:07:21;4.90;99.90
14682;DHT22;7429;52.498;13.480;2023-04-03T16:10:30;4.90;99.90
14682;DHT22;7429;52.498;13.480;2023-04-03T16:13:33;5.00;99.90
14682;DHT22;7429;52.498;13.480;2023-04-03T16:16:37;5.00;99.90
14682;DHT22;7429;52.498;13.480;2023-04-03T16:19:40;5.10;99.90
14682;DHT22;7429;52.498;13.480;2023-04-03T16:22:45;5.20;99.90
14682;DHT22;7429;52.498;13.480;2023-04-03T16:25:48;5.30;99.90
14682;DHT22;7429;52.498;13.480;2023-04-03T16:28:52;5.30;99.90
14682;DHT22;7429;52.498;13.480;2023-04-03T16:31:56;5.30;99.90
14682;DHT22;7429;52.498;13.480;2023-04-03T16:34:59;5.20;99.90
14682;DHT22;7429;52.498;13.480;2023-04-03T16:38:04;5.20;99.90
14682;DHT22;7429;52.498;13.480;2023-04-03T16:41:08;5.20;99.90
14682;DHT22;7429;52.498;13.480;2023-04-03T16:44:11;5.20;99.90
14682;DHT22;7429;52.498;13.480;2023-04-03T16:47:15;5.10;99.90
14682;DHT22;7429;52.498;13.480;2023-04-03T16:50:20;5.00;99.90
14682;DHT22;7429;52.498;13.480;2023-04-03T16:53:26;5.00;99.90
14682;DHT22;7429;52.498;13.480;2023-04-03T16:56:29;4.90;99.90
14682;DHT22;7429;52.498;13.480;2023-04-03T16:59:32;4.90;99.90
14682;DHT22;7429;52.498;13.480;2023-04-03T17:02:35;4.90;99.90
14682;DHT22;7429;52.498;13.480;2023-04-03T17:05:39;4.90;99.90
14682;DHT22;7429;52.498;13.480;2023-04-03T17:08:45;4.80;99.90
14682;DHT22;7429;52.498;13.480;2023-04-03T17:12:01;4.70;99.90
14682;DHT22;7429;52.498;13.480;2023-04-03T17:15:05;4.70;99.90
14682;DHT22;7429;52.498;13.480;2023-04-03T17:18:09;4.70;99.90
14682;DHT22;7429;52.498;13.480;2023-04-03T17:21:12;4.80;99.90
14682;DHT22;7429;52.498;13.480;2023-04-03T17:24:39;4.80;99.90
14682;DHT22;7429;52.498;13.480;2023-04-03T17:27:42;4.80;99.90
14682;DHT22;7429;52.498;13.480;2023-04-03T17:30:45;4.70;99.90
14682;DHT22;7429;52.498;13.480;2023-04-03T17:33:48;4.70;99.90
14682;DHT22;7429;52.498;13.480;2023-04-03T17:36:51;4.70;99.90
14682;DHT22;7429;52.498;13.480;2023-04-03T17:39:55;4.70;99.90
14682;DHT22;7429;52.498;13.480;2023-04-03T17:42:58;4.60;99.90
14682;DHT22;7429;52.498;13.480;2023-04-03T17:46:03;4.60;99.90
14682;DHT22;7429;52.498;13.480;2023-04-03T17:49:07;4.50;99.90
14682;DHT22;7429;52.498;13.480;2023-04-03T17:52:11;4.60;99.90
14682;DHT22;7429;52.498;13.480;2023-04-03T17:55:15;4.60;99.90
14682;DHT22;7429;52.498;13.480;2023-04-03T17:58:19;4.50;99.90
14682;DHT22;7429;52.498;13.480;2023-04-03T18:01:25;4.40;99.90
14682;DHT22;7429;52.498;13.480;2023-04-03T18:04:29;4.40;99.90
14682;DHT22;7429;52.498;13.480;2023-04-03T18:07:32;4.40;99.90
14682;DHT22;7429;52.498;13.480;2023-04-03T18:10:36;4.30;99.90
14682;DHT22;7429;52.498;13.480;2023-04-03T18:13:40;4.30;99.90
14682;DHT22;7429;52.498;13.480;2023-04-03T18:16:44;4.40;99.90
14682;DHT22;7429;52.498;13.480;2023-04-03T18:19:47;4.30;99.90
14682;DHT22;7429;52.498;13.480;2023-04-03T18:22:52;4.20;99.90
14682;DHT22;7429;52.498;13.480;2023-04-03T18:25:56;4.20;99.90
14682;DHT22;7429;52.498;13.480;2023-04-03T18:29:04;4.10;99.90
14682;DHT22;7429;52.498;13.480;2023-04-03T18:32:10;4.10;99.90
14682;DHT22;7429;52.498;13.480;2023-04-03T18:35:15;4.00;99.90
14682;DHT22;7429;52.498;13.480;2023-04-03T18:38:19;4.00;99.90
14682;DHT22;7429;52.498;13.480;2023-04-03T18:41:26;4.00;99.90
14682;DHT22;7429;52.498;13.480;2023-04-03T18:44:32;3.90;99.90
14682;DHT22;7429;52.498;13.480;2023-04-03T18:47:35;3.90;99.90
14682;DHT22;7429;52.498;13.480;2023-04-03T18:50:39;3.90;99.90
14682;DHT22;7429;52.498;13.480;2023-04-03T18:53:45;3.80;99.90
14682;DHT22;7429;52.498;13.480;2023-04-03T18:56:50;3.80;99.90
14682;DHT22;7429;52.498;13.480;2023-04-03T18:59:53;3.70;99.90
14682;DHT22;7429;52.498;13.480;2023-04-03T19:02:56;3.70;99.90
14682;DHT22;7429;52.498;13.480;2023-04-03T19:06:00;3.70;99.90
14682;DHT22;7429;52.498;13.480;2023-04-03T19:09:05;3.60;99.90
14682;DHT22;7429;52.498;13.480;2023-04-03T19:12:09;3.60;99.90
14682;DHT22;7429;52.498;13.480;2023-04-03T19:15:13;3.70;99.90
14682;DHT22;7429;52.498;13.480;2023-04-03T19:18:17;3.60;99.90
14682;DHT22;7429;52.498;13.480;2023-04-03T19:21:20;3.60;99.90
14682;DHT22;7429;52.498;13.480;2023-04-03T19:24:23;3.60;99.90
14682;DHT22;7429;52.498;13.480;2023-04-03T19:27:28;3.60;99.90
14682;DHT22;7429;52.498;13.480;2023-04-03T19:30:31;3.60;99.90
14682;DHT22;7429;52.498;13.480;2023-04-03T19:33:34;3.60;99.90
14682;DHT22;7429;52.498;13.480;2023-04-03T19:36:37;3.60;99.90
14682;DHT22;7429;52.498;13.480;2023-04-03T19:39:42;3.60;99.90
14682;DHT22;7429;52.498;13.480;2023-04-03T19:42:46;3.50;99.90
14682;DHT22;7429;52.498;13.480;2023-04-03T19:45:50;3.50;99.90
14682;DHT22;7429;52.498;13.480;2023-04-03T19:48:54;3.60;99.90
14682;DHT22;7429;52.498;13.480;2023-04-03T19:51:57;3.60;99.90
14682;DHT22;7429;52.498;13.480;2023-04-03T19:55:00;3.60;99.90
14682;DHT22;7429;52.498;13.480;2023-04-03T19:58:05;3.50;99.90
14682;DHT22;7429;52.498;13.480;2023-04-03T20:01:08;3.50;99.90
14682;DHT22;7429;52.498;13.480;2023-04-03T20:04:12;3.50;99.90
14682;DHT22;7429;52.498;13.480;2023-04-03T20:07:15;3.40;99.90
14682;DHT22;7429;52.498;13.480;2023-04-03T20:10:18;3.40;99.90